Time;durP1;ratioP1;P1;durP2;ratioP2;P2;SDS_P1;SDS_P2;PMS_P1;PMS_P2;Temp;Humidity;BMP_temperature;BMP_pressure;BME280_temperature;BME280_humidity;BME280_pressure;Samples;Min_cycle;Max_cycle;Signal;HPM_P1;HPM_P2
2023/09/20 00:00:55;;;;;;;14.15;1.90;;;20.00;99.90;;;;;;2075287;28;20050;-76
2023/09/20 00:01:55;;;;;;;6.78;2.00;;;20.00;99.90;;;;;;2075858;28;20038;-76
2023/09/20 00:02:56;;;;;;;5.75;1.98;;;20.00;99.90;;;;;;2076306;28;20392;-76
2023/09/20 00:03:59;;;;;;;5.80;2.40;;;20.00;99.90;;;;;;2067918;28;20117;-77
2023/09/20 00:05:00;;;;;;;6.97;2.47;;;20.00;99.90;;;;;;2057381;28;20058;-76
2023/09/20 00:06:07;;;;;;;3.78;1.92;;;20.00;99.90;;;;;;2066234;28;20031;-76
2023/09/20 00:07:08;;;;;;;5.80;2.58;;;20.00;99.90;;;;;;2076306;28;20080;-76
2023/09/20 00:08:09;;;;;;;5.82;2.20;;;20.00;99.90;;;;;;2074894;28;20034;-76
2023/09/20 00:09:09;;;;;;;5.88;2.17;;;19.90;99.90;;;;;;2075986;28;20473;-76
2023/09/20 00:10:12;;;;;;;4.68;2.22;;;19.90;99.90;;;;;;2076613;28;20091;-76
2023/09/20 00:11:15;;;;;;;5.35;2.28;;;19.90;99.90;;;;;;2075495;28;20552;-76
2023/09/20 00:12:16;;;;;;;7.20;2.03;;;20.00;99.90;;;;;;2075594;28;20480;-76
2023/09/20 00:13:16;;;;;;;4.90;2.40;;;19.90;99.90;;;;;;2077111;28;20126;-76
2023/09/20 00:14:17;;;;;;;6.95;1.92;;;19.90;99.90;;;;;;2066411;28;21436;-76
2023/09/20 00:15:17;;;;;;;5.00;2.10;;;19.90;99.90;;;;;;2067983;28;20037;-76
2023/09/20 00:16:18;;;;;;;5.75;1.85;;;19.90;99.90;;;;;;2075470;28;20029;-76
2023/09/20 00:17:19;;;;;;;5.70;2.30;;;19.90;99.90;;;;;;2077252;28;20040;-76
2023/09/20 00:18:20;;;;;;;4.93;1.70;;;19.90;99.90;;;;;;2077761;28;20069;-76
2023/09/20 00:19:21;;;;;;;4.97;2.08;;;19.90;99.90;;;;;;2068148;28;20120;-76
2023/09/20 00:20:22;;;;;;;4.28;2.10;;;19.90;99.90;;;;;;2067517;28;20065;-76
2023/09/20 00:21:23;;;;;;;3.33;2.05;;;19.90;99.90;;;;;;2066653;28;20083;-76
2023/09/20 00:22:24;;;;;;;4.45;2.28;;;19.90;99.90;;;;;;2069124;28;20014;-76
2023/09/20 00:23:24;;;;;;;4.70;2.22;;;19.90;99.90;;;;;;2076265;28;20064;-76
2023/09/20 00:24:25;;;;;;;3.22;2.13;;;19.90;99.90;;;;;;2077874;28;20026;-76
2023/09/20 00:25:27;;;;;;;6.30;2.08;;;19.90;99.90;;;;;;2076519;28;20129;-76
2023/09/20 00:26:28;;;;;;;5.57;1.88;;;19.90;99.90;;;;;;2077075;28;20033;-77
2023/09/20 00:27:29;;;;;;;5.75;2.33;;;19.90;99.90;;;;;;2077464;28;20025;-76
2023/09/20 00:28:33;;;;;;;6.00;2.55;;;19.80;99.90;;;;;;2076756;28;20030;-76
2023/09/20 00:29:34;;;;;;;4.63;1.80;;;19.80;99.90;;;;;;2076679;28;20075;-76
2023/09/20 00:30:34;;;;;;;6.88;2.17;;;19.90;99.90;;;;;;2076631;28;20026;-76
2023/09/20 00:31:35;;;;;;;3.28;1.80;;;19.80;99.90;;;;;;2078054;28;20108;-76
2023/09/20 00:32:39;;;;;;;5.53;1.92;;;19.80;99.90;;;;;;2078789;28;20033;-76
2023/09/20 00:33:40;;;;;;;3.30;1.85;;;19.80;99.90;;;;;;2078041;28;20034;-76
2023/09/20 00:34:40;;;;;;;4.65;2.05;;;19.80;99.90;;;;;;2079129;28;20035;-76
2023/09/20 00:35:41;;;;;;;4.82;2.30;;;19.80;99.90;;;;;;2077848;28;20523;-76
2023/09/20 00:36:41;;;;;;;3.80;1.95;;;19.80;99.90;;;;;;2078966;28;20508;-76
2023/09/20 00:37:44;;;;;;;5.90;1.90;;;19.80;99.90;;;;;;2076872;28;20030;-75
2023/09/20 00:38:45;;;;;;;4.57;2.08;;;19.80;99.90;;;;;;2076646;28;20041;-76
2023/09/20 00:39:49;;;;;;;8.52;2.05;;;19.80;99.90;;;;;;2077358;28;20044;-76
2023/09/20 00:40:50;;;;;;;6.32;2.15;;;19.80;99.90;;;;;;2077357;28;20026;-76
2023/09/20 00:41:51;;;;;;;3.90;1.70;;;19.80;99.90;;;;;;2076665;28;20041;-76
2023/09/20 00:43:00;;;;;;;5.10;1.83;;;19.70;99.90;;;;;;2076550;28;20110;-76
2023/09/20 00:44:01;;;;;;;3.63;1.83;;;19.80;99.90;;;;;;2075697;28;20583;-76
2023/09/20 00:45:02;;;;;;;5.07;2.03;;;19.70;99.90;;;;;;2076944;28;20072;-76
2023/09/20 00:46:04;;;;;;;4.25;1.75;;;19.70;99.90;;;;;;2077280;28;20116;-76
2023/09/20 00:47:05;;;;;;;4.20;2.00;;;19.70;99.90;;;;;;2076848;28;20038;-76
2023/09/20 00:48:07;;;;;;;4.03;1.98;;;19.70;99.90;;;;;;2076152;28;20030;-76
2023/09/20 00:49:08;;;;;;;3.95;2.00;;;19.70;99.90;;;;;;2076711;28;20033;-77
2023/09/20 00:50:13;;;;;;;4.85;1.70;;;19.70;99.90;;;;;;2077926;28;20493;-76
2023/09/20 00:51:15;;;;;;;3.00;1.75;;;19.70;99.90;;;;;;2069169;28;20040;-76
2023/09/20 00:52:16;;;;;;;5.07;1.90;;;19.70;99.90;;;;;;2068605;28;20081;-76
2023/09/20 00:53:17;;;;;;;5.30;1.95;;;19.70;99.90;;;;;;2067039;28;20393;-76
2023/09/20 00:54:17;;;;;;;4.90;1.85;;;19.70;99.90;;;;;;2076742;28;20137;-76
2023/09/20 00:55:23;;;;;;;4.57;1.77;;;19.70;99.90;;;;;;2077755;28;20033;-77
2023/09/20 00:56:23;;;;;;;6.07;2.00;;;19.70;99.90;;;;;;2070242;28;20413;-76
2023/09/20 00:57:25;;;;;;;4.68;2.03;;;19.70;99.90;;;;;;2068311;28;20026;-76
2023/09/20 00:58:26;;;;;;;4.28;2.10;;;19.70;99.90;;;;;;2079263;28;20049;-76
2023/09/20 00:59:26;;;;;;;6.35;2.42;;;19.60;99.90;;;;;;2077552;28;20029;-76
2023/09/20 01:00:27;;;;;;;5.65;2.05;;;19.70;99.90;;;;;;2078224;28;20029;-76
2023/09/20 01:01:28;;;;;;;7.25;2.10;;;19.60;99.90;;;;;;2069290;28;20032;-76
2023/09/20 01:02:29;;;;;;;5.63;2.28;;;19.70;99.90;;;;;;2064115;28;20061;-76
2023/09/20 01:03:34;;;;;;;7.15;2.08;;;19.70;99.90;;;;;;2071486;28;20535;-76
2023/09/20 01:04:36;;;;;;;5.00;1.55;;;19.70;99.90;;;;;;2069005;28;20022;-76
2023/09/20 01:05:37;;;;;;;4.55;1.88;;;19.60;99.90;;;;;;2070506;28;20018;-77
2023/09/20 01:06:40;;;;;;;7.13;1.95;;;19.70;99.90;;;;;;2076927;28;20033;-76
2023/09/20 01:07:42;;;;;;;3.83;1.88;;;19.70;99.90;;;;;;2069769;28;20057;-76
2023/09/20 01:08:42;;;;;;;4.05;1.67;;;19.70;99.90;;;;;;2067606;28;20187;-76
2023/09/20 01:09:45;;;;;;;5.13;1.90;;;19.70;99.90;;;;;;2077177;28;20021;-76
2023/09/20 01:10:47;;;;;;;6.35;2.20;;;19.70;99.90;;;;;;2077554;28;20029;-76
2023/09/20 01:11:47;;;;;;;4.63;2.22;;;19.70;99.90;;;;;;2076359;28;20025;-76
2023/09/20 01:12:48;;;;;;;5.05;2.20;;;19.70;99.90;;;;;;2076787;28;20920;-77
2023/09/20 01:13:49;;;;;;;6.05;1.83;;;19.70;99.90;;;;;;2077525;28;20575;-76
2023/09/20 01:14:49;;;;;;;4.32;1.40;;;19.70;99.90;;;;;;2076077;28;20026;-76
2023/09/20 01:15:50;;;;;;;6.15;2.22;;;19.70;99.90;;;;;;2076365;28;20079;-76
2023/09/20 01:16:53;;;;;;;4.82;2.05;;;19.70;99.90;;;;;;2076005;28;20076;-76
2023/09/20 01:17:57;;;;;;;4.88;1.95;;;19.70;99.90;;;;;;2077500;28;20018;-76
2023/09/20 01:18:57;;;;;;;4.43;2.13;;;19.70;99.90;;;;;;2076511;28;20500;-76
2023/09/20 01:19:58;;;;;;;4.80;1.90;;;19.70;99.90;;;;;;2070066;28;20537;-76
2023/09/20 01:20:58;;;;;;;5.63;2.33;;;19.70;99.90;;;;;;2068899;28;20045;-76
2023/09/20 01:21:59;;;;;;;4.32;2.13;;;19.80;99.90;;;;;;2076174;28;20018;-76
2023/09/20 01:23:00;;;;;;;8.52;2.13;;;19.80;99.90;;;;;;2076120;28;20079;-77
2023/09/20 01:24:02;;;;;;;5.43;1.80;;;19.70;99.90;;;;;;2076551;28;20677;-76
2023/09/20 01:25:04;;;;;;;6.22;2.42;;;19.80;99.90;;;;;;2068942;28;20061;-77
2023/09/20 01:26:05;;;;;;;4.85;1.85;;;19.80;99.90;;;;;;2070485;28;20034;-76
2023/09/20 01:27:06;;;;;;;4.60;1.67;;;19.80;99.90;;;;;;2068541;28;20165;-76
2023/09/20 01:28:08;;;;;;;4.45;1.60;;;19.70;99.90;;;;;;2067995;28;20092;-76
2023/09/20 01:29:09;;;;;;;6.70;2.53;;;19.70;99.90;;;;;;2079190;28;20048;-76
2023/09/20 01:30:11;;;;;;;7.65;2.13;;;19.80;99.90;;;;;;2078209;28;20473;-76
2023/09/20 01:31:12;;;;;;;4.43;2.00;;;19.80;99.90;;;;;;2076982;28;20044;-76
2023/09/20 01:32:14;;;;;;;6.22;2.10;;;19.80;99.90;;;;;;2067337;28;20034;-76
2023/09/20 01:33:15;;;;;;;5.80;2.50;;;19.80;99.90;;;;;;2061859;28;20037;-76
2023/09/20 01:34:15;;;;;;;8.52;2.10;;;19.80;99.90;;;;;;2069868;28;20030;-76
2023/09/20 01:35:16;;;;;;;6.88;2.13;;;19.70;99.90;;;;;;2078829;28;20084;-76
2023/09/20 01:36:17;;;;;;;7.47;2.30;;;19.70;99.90;;;;;;2070569;28;20034;-76
2023/09/20 01:37:18;;;;;;;4.90;2.45;;;19.70;99.90;;;;;;2059252;28;20037;-76
2023/09/20 01:38:20;;;;;;;2.90;1.83;;;19.70;99.90;;;;;;2059023;28;20037;-76
2023/09/20 01:39:21;;;;;;;5.50;1.98;;;19.70;99.90;;;;;;2070362;28;20564;-76
2023/09/20 01:40:26;;;;;;;3.10;1.60;;;19.70;99.90;;;;;;2077358;28;20116;-77
2023/09/20 01:41:27;;;;;;;2.38;1.85;;;19.70;99.90;;;;;;2075645;28;20069;-76
2023/09/20 01:42:28;;;;;;;6.07;2.28;;;19.70;99.90;;;;;;2069370;28;20032;-76
2023/09/20 01:43:30;;;;;;;4.63;1.85;;;19.70;99.90;;;;;;2078853;28;20021;-76
2023/09/20 01:44:30;;;;;;;3.33;1.48;;;19.70;99.90;;;;;;2078490;28;20032;-76
2023/09/20 01:45:32;;;;;;;9.10;2.40;;;19.70;99.90;;;;;;2077859;28;20077;-76
2023/09/20 01:46:33;;;;;;;8.45;1.98;;;19.70;99.90;;;;;;2078315;28;20030;-76
2023/09/20 01:47:33;;;;;;;6.93;1.88;;;19.70;99.90;;;;;;2068901;28;20030;-76
2023/09/20 01:48:34;;;;;;;5.47;1.98;;;19.70;99.90;;;;;;2059072;28;20041;-76
2023/09/20 01:49:36;;;;;;;4.90;1.73;;;19.60;99.90;;;;;;2069291;28;20018;-77
2023/09/20 01:50:37;;;;;;;8.00;2.50;;;19.60;99.90;;;;;;2068385;28;20037;-76
2023/09/20 01:51:38;;;;;;;4.20;1.92;;;19.70;99.90;;;;;;2068346;28;20060;-77
2023/09/20 01:52:39;;;;;;;5.65;2.25;;;19.60;99.90;;;;;;2075328;28;20587;-76
2023/09/20 01:53:39;;;;;;;6.68;2.20;;;19.60;99.90;;;;;;2075309;28;20041;-76
2023/09/20 01:54:42;;;;;;;3.75;1.70;;;19.60;99.90;;;;;;2077884;28;20127;-76
2023/09/20 01:55:42;;;;;;;4.93;1.88;;;19.60;99.90;;;;;;2069099;28;20026;-76
2023/09/20 01:56:43;;;;;;;7.22;2.20;;;19.60;99.90;;;;;;2067678;28;20560;-76
2023/09/20 01:57:51;;;;;;;6.60;2.00;;;19.60;99.90;;;;;;2068222;28;20026;-76
2023/09/20 01:58:52;;;;;;;4.38;2.03;;;19.60;99.90;;;;;;2069582;28;20044;-77
2023/09/20 01:59:52;;;;;;;3.03;1.92;;;19.60;99.90;;;;;;2069828;28;20044;-76
2023/09/20 02:00:54;;;;;;;6.93;2.15;;;19.60;99.90;;;;;;2068693;28;20085;-76
2023/09/20 02:01:54;;;;;;;7.03;2.38;;;19.50;99.90;;;;;;2077748;28;20392;-77
2023/09/20 02:03:00;;;;;;;7.05;2.28;;;19.60;99.90;;;;;;2078536;28;20025;-76
2023/09/20 02:04:00;;;;;;;4.90;1.88;;;19.50;99.90;;;;;;2074921;28;20022;-77
2023/09/20 02:05:01;;;;;;;5.40;2.10;;;19.50;99.90;;;;;;2076446;28;20075;-76
2023/09/20 02:06:02;;;;;;;4.10;1.90;;;19.50;99.90;;;;;;2078264;28;20018;-77
2023/09/20 02:07:02;;;;;;;6.55;2.75;;;19.50;99.90;;;;;;2076085;28;20022;-76
2023/09/20 02:08:04;;;;;;;5.38;1.88;;;19.50;99.90;;;;;;2077848;28;20022;-76
2023/09/20 02:09:05;;;;;;;7.05;2.30;;;19.50;99.90;;;;;;2078316;28;20550;-76
2023/09/20 02:10:09;;;;;;;3.97;2.03;;;19.50;99.90;;;;;;2076494;28;20025;-76
2023/09/20 02:11:10;;;;;;;3.50;2.10;;;19.50;99.90;;;;;;2077840;28;20057;-76
2023/09/20 02:12:11;;;;;;;6.03;2.47;;;19.50;99.90;;;;;;2075068;28;20575;-77
2023/09/20 02:13:11;;;;;;;8.40;2.88;;;19.50;99.90;;;;;;2077064;28;20444;-76
2023/09/20 02:14:12;;;;;;;7.47;2.28;;;19.50;99.90;;;;;;2077275;28;20067;-76
2023/09/20 02:15:14;;;;;;;3.80;2.10;;;19.50;99.90;;;;;;2076633;28;20595;-76
2023/09/20 02:16:14;;;;;;;5.82;2.15;;;19.40;99.90;;;;;;2077110;28;20029;-76
2023/09/20 02:17:17;;;;;;;4.60;2.35;;;19.40;99.90;;;;;;2076371;28;20505;-76
2023/09/20 02:18:17;;;;;;;4.45;1.83;;;19.40;99.90;;;;;;2077823;28;20089;-76
2023/09/20 02:19:19;;;;;;;4.40;1.63;;;19.40;99.90;;;;;;2076223;28;20033;-77
2023/09/20 02:20:23;;;;;;;5.10;2.03;;;19.40;99.90;;;;;;2073978;28;20034;-77
2023/09/20 02:21:24;;;;;;;7.35;2.00;;;19.40;99.90;;;;;;2075563;28;20058;-76
2023/09/20 02:22:24;;;;;;;5.30;1.83;;;19.40;99.90;;;;;;2076908;28;20034;-76
2023/09/20 02:23:27;;;;;;;4.57;2.08;;;19.40;99.90;;;;;;2070226;28;20141;-76
2023/09/20 02:24:28;;;;;;;4.38;1.90;;;19.30;99.90;;;;;;2073355;28;20036;-76
2023/09/20 02:25:29;;;;;;;6.65;2.17;;;19.30;99.90;;;;;;2077875;28;20022;-76
2023/09/20 02:26:30;;;;;;;3.88;2.05;;;19.30;99.90;;;;;;2076726;28;20772;-76
2023/09/20 02:27:31;;;;;;;5.78;1.98;;;19.30;99.90;;;;;;2077228;28;20195;-76
2023/09/20 02:28:34;;;;;;;4.63;2.05;;;19.30;99.90;;;;;;2075606;28;20432;-76
2023/09/20 02:29:35;;;;;;;6.63;1.90;;;19.30;99.90;;;;;;2075032;28;20022;-76
2023/09/20 02:30:36;;;;;;;6.20;2.40;;;19.30;99.90;;;;;;2077815;28;20436;-76
2023/09/20 02:31:36;;;;;;;5.25;2.38;;;19.30;99.90;;;;;;2075991;28;20037;-76
2023/09/20 02:32:37;;;;;;;6.70;2.15;;;19.30;99.90;;;;;;2069872;28;20036;-76
2023/09/20 02:33:38;;;;;;;7.70;2.33;;;19.30;99.90;;;;;;2070554;28;20437;-76
2023/09/20 02:34:39;;;;;;;7.03;2.55;;;19.20;99.90;;;;;;2067650;28;20537;-76
2023/09/20 02:35:40;;;;;;;5.82;2.03;;;19.20;99.90;;;;;;2059053;28;20125;-76
2023/09/20 02:36:40;;;;;;;6.38;2.15;;;19.20;99.90;;;;;;2068009;28;20477;-76
2023/09/20 02:37:41;;;;;;;6.13;2.20;;;19.20;99.90;;;;;;2070367;28;20029;-76
2023/09/20 02:38:42;;;;;;;5.88;2.45;;;19.20;99.90;;;;;;2076263;28;20052;-76
2023/09/20 02:39:42;;;;;;;6.50;2.25;;;19.20;99.90;;;;;;2075732;28;20542;-76
2023/09/20 02:40:46;;;;;;;6.03;2.28;;;19.20;99.90;;;;;;2074740;28;20556;-76
2023/09/20 02:41:47;;;;;;;7.30;2.50;;;19.20;99.90;;;;;;2076031;28;20079;-76
2023/09/20 02:42:51;;;;;;;7.95;2.60;;;19.20;99.90;;;;;;2076431;28;21040;-76
2023/09/20 02:43:52;;;;;;;5.43;2.22;;;19.10;99.90;;;;;;2077083;28;20017;-76
2023/09/20 02:44:53;;;;;;;4.35;2.03;;;19.10;99.90;;;;;;2077347;28;20075;-76
2023/09/20 02:45:55;;;;;;;6.22;2.45;;;19.10;99.90;;;;;;2067759;28;20040;-76
2023/09/20 02:46:55;;;;;;;5.30;2.47;;;19.10;99.90;;;;;;2067124;28;20496;-77
2023/09/20 02:47:57;;;;;;;4.55;1.92;;;19.10;99.90;;;;;;2077567;28;20419;-76
2023/09/20 02:48:58;;;;;;;5.82;1.88;;;19.10;99.90;;;;;;2075237;28;20485;-76
2023/09/20 02:49:59;;;;;;;8.57;2.22;;;19.10;99.90;;;;;;2077257;28;20168;-76
2023/09/20 02:50:59;;;;;;;5.25;2.30;;;19.10;99.90;;;;;;2076719;28;20026;-76
2023/09/20 02:52:00;;;;;;;3.72;1.90;;;19.10;99.90;;;;;;2076439;28;20064;-76
2023/09/20 02:53:01;;;;;;;5.93;2.17;;;19.10;99.90;;;;;;2077250;28;20116;-76
2023/09/20 02:54:01;;;;;;;7.40;1.98;;;19.10;99.90;;;;;;2075365;28;20052;-76
2023/09/20 02:55:08;;;;;;;4.22;1.83;;;19.10;99.90;;;;;;2076835;28;20033;-75
2023/09/20 02:56:09;;;;;;;4.85;2.33;;;19.10;99.90;;;;;;2075945;28;20055;-76
2023/09/20 02:57:12;;;;;;;4.18;2.17;;;19.10;99.90;;;;;;2076417;28;20033;-76
2023/09/20 02:58:13;;;;;;;7.10;2.10;;;19.00;99.90;;;;;;2074904;28;20434;-76
2023/09/20 02:59:13;;;;;;;4.20;1.67;;;19.00;99.90;;;;;;2076006;28;20428;-76
2023/09/20 03:00:16;;;;;;;5.18;2.20;;;19.00;99.90;;;;;;2076700;28;20034;-76
2023/09/20 03:01:17;;;;;;;4.25;2.13;;;19.10;99.90;;;;;;2075819;28;20048;-76
2023/09/20 03:02:19;;;;;;;5.68;1.90;;;19.10;99.90;;;;;;2075608;28;20488;-76
2023/09/20 03:03:23;;;;;;;8.48;2.30;;;19.00;99.90;;;;;;2076821;28;20041;-77
2023/09/20 03:04:23;;;;;;;9.32;2.20;;;19.00;99.90;;;;;;2076037;28;20029;-76
2023/09/20 03:05:27;;;;;;;4.50;2.03;;;19.00;99.90;;;;;;2076604;28;20476;-76
2023/09/20 03:06:29;;;;;;;4.18;1.95;;;19.00;99.90;;;;;;2075919;28;20376;-76
2023/09/20 03:07:30;;;;;;;6.68;2.03;;;19.00;99.90;;;;;;2076343;28;20021;-76
2023/09/20 03:08:30;;;;;;;5.53;1.73;;;19.00;99.90;;;;;;2074917;28;20048;-76
2023/09/20 03:09:35;;;;;;;4.10;2.17;;;19.00;99.90;;;;;;2077224;28;20475;-76
2023/09/20 03:10:38;;;;;;;5.93;2.58;;;19.00;99.90;;;;;;2076599;28;20122;-76
2023/09/20 03:11:38;;;;;;;5.88;2.20;;;18.90;99.90;;;;;;2075948;28;20468;-76
2023/09/20 03:12:43;;;;;;;4.25;2.03;;;18.90;99.90;;;;;;2077011;28;20030;-76
2023/09/20 03:13:44;;;;;;;4.72;2.20;;;18.90;99.90;;;;;;2075340;28;20033;-76
2023/09/20 03:14:45;;;;;;;5.85;2.35;;;18.90;99.90;;;;;;2076094;28;20196;-76
2023/09/20 03:15:46;;;;;;;4.15;2.20;;;18.90;99.90;;;;;;2076655;28;20025;-76
2023/09/20 03:16:46;;;;;;;5.85;2.00;;;18.90;99.90;;;;;;2075757;28;20054;-76
2023/09/20 03:17:52;;;;;;;5.30;2.05;;;18.90;99.90;;;;;;2075278;28;20116;-76
2023/09/20 03:18:53;;;;;;;4.32;1.98;;;18.90;99.90;;;;;;2076412;28;20460;-76
2023/09/20 03:19:53;;;;;;;5.10;2.05;;;18.80;99.90;;;;;;2077182;28;20067;-76
2023/09/20 03:20:54;;;;;;;5.63;2.40;;;18.80;99.90;;;;;;2067208;28;20073;-76
2023/09/20 03:21:55;;;;;;;4.65;2.38;;;18.90;99.90;;;;;;2067255;28;20022;-76
2023/09/20 03:23:00;;;;;;;6.65;2.47;;;18.80;99.90;;;;;;2075651;28;20420;-76
2023/09/20 03:24:05;;;;;;;5.35;2.45;;;18.80;99.90;;;;;;2075442;28;20033;-76
2023/09/20 03:25:13;;;;;;;4.03;2.08;;;18.90;99.90;;;;;;2076803;28;20519;-76
2023/09/20 03:26:16;;;;;;;5.80;1.95;;;18.80;99.90;;;;;;2075626;28;20029;-76
2023/09/20 03:27:16;;;;;;;3.10;1.85;;;18.80;99.90;;;;;;2075933;28;20033;-76
2023/09/20 03:28:19;;;;;;;2.72;1.70;;;18.80;99.90;;;;;;2076123;28;20068;-76
2023/09/20 03:29:20;;;;;;;5.85;2.20;;;18.80;99.90;;;;;;2067300;28;20113;-76
2023/09/20 03:30:21;;;;;;;4.32;1.95;;;18.80;99.90;;;;;;2067174;28;20053;-76
2023/09/20 03:31:22;;;;;;;6.72;2.20;;;18.70;99.90;;;;;;2068051;28;20025;-76
2023/09/20 03:32:23;;;;;;;4.45;2.20;;;18.80;99.90;;;;;;2066766;28;20073;-76
2023/09/20 03:33:23;;;;;;;4.40;1.90;;;18.70;99.90;;;;;;2076337;28;20034;-76
2023/09/20 03:34:24;;;;;;;5.72;2.40;;;18.70;99.90;;;;;;2068348;28;20081;-76
2023/09/20 03:35:25;;;;;;;4.90;2.00;;;18.70;99.90;;;;;;2068067;28;20026;-76
2023/09/20 03:36:26;;;;;;;6.45;2.53;;;18.70;99.90;;;;;;2075348;28;20052;-76
2023/09/20 03:37:28;;;;;;;5.72;2.00;;;18.70;99.90;;;;;;2068540;28;20044;-76
2023/09/20 03:38:29;;;;;;;5.13;1.95;;;18.70;99.90;;;;;;2077674;28;20056;-76
2023/09/20 03:39:30;;;;;;;4.85;2.03;;;18.70;99.90;;;;;;2075178;28;20030;-76
2023/09/20 03:40:30;;;;;;;4.53;2.10;;;18.70;99.90;;;;;;2075873;28;20033;-75
2023/09/20 03:41:31;;;;;;;5.13;2.28;;;18.70;99.90;;;;;;2075502;28;20048;-76
2023/09/20 03:42:32;;;;;;;4.78;2.08;;;18.70;99.90;;;;;;2076084;28;20128;-76
2023/09/20 03:43:33;;;;;;;4.07;2.25;;;18.70;99.90;;;;;;2078050;28;20029;-76
2023/09/20 03:44:35;;;;;;;5.85;1.83;;;18.60;99.90;;;;;;2075948;28;20025;-76
2023/09/20 03:45:35;;;;;;;5.78;1.92;;;18.70;99.90;;;;;;2075177;28;20064;-76
2023/09/20 03:46:36;;;;;;;4.50;2.10;;;18.60;99.90;;;;;;2076513;28;20025;-76
2023/09/20 03:47:49;;;;;;;6.32;2.17;;;18.70;99.90;;;;;;2074882;28;20130;-76
2023/09/20 03:48:50;;;;;;;4.25;1.77;;;18.60;99.90;;;;;;2076477;28;20440;-76
2023/09/20 03:49:52;;;;;;;4.90;1.77;;;18.70;99.90;;;;;;2075454;28;20084;-76
2023/09/20 03:50:52;;;;;;;5.30;1.70;;;18.70;99.90;;;;;;2074451;28;20100;-76
2023/09/20 03:51:53;;;;;;;10.80;3.00;;;18.70;99.90;;;;;;2075767;28;20084;-76
2023/09/20 03:52:54;;;;;;;5.38;2.10;;;18.70;99.90;;;;;;2077435;28;20759;-76
2023/09/20 03:53:54;;;;;;;4.97;2.13;;;18.70;99.90;;;;;;2075219;28;20037;-76
2023/09/20 03:54:55;;;;;;;4.50;2.15;;;18.70;99.90;;;;;;2076281;28;20739;-76
2023/09/20 03:55:55;;;;;;;3.28;2.10;;;18.60;99.90;;;;;;2075567;28;20109;-76
2023/09/20 03:56:56;;;;;;;4.50;2.08;;;18.60;99.90;;;;;;2076158;28;20111;-76
2023/09/20 03:57:56;;;;;;;8.02;2.60;;;18.60;99.90;;;;;;2075144;28;20022;-76
2023/09/20 03:58:59;;;;;;;5.55;2.15;;;18.60;99.90;;;;;;2078122;28;20025;-76
2023/09/20 04:00:00;;;;;;;6.53;1.95;;;18.60;99.90;;;;;;2077067;28;20024;-77
2023/09/20 04:01:02;;;;;;;6.75;2.10;;;18.60;99.90;;;;;;2077292;28;20033;-76
2023/09/20 04:02:03;;;;;;;4.32;1.85;;;18.60;99.90;;;;;;2076719;28;20115;-76
2023/09/20 04:03:11;;;;;;;5.28;2.22;;;18.60;99.90;;;;;;2078987;28;20177;-76
2023/09/20 04:04:12;;;;;;;5.88;2.05;;;18.60;99.90;;;;;;2076720;28;20032;-76
2023/09/20 04:05:16;;;;;;;5.78;2.28;;;18.60;99.90;;;;;;2067670;28;20033;-76
2023/09/20 04:06:16;;;;;;;6.50;2.30;;;18.50;99.90;;;;;;2069555;28;20038;-76
2023/09/20 04:07:18;;;;;;;6.80;2.30;;;18.60;99.90;;;;;;2076251;28;20029;-76
2023/09/20 04:08:18;;;;;;;8.18;2.75;;;18.50;99.90;;;;;;2076999;28;20049;-76
2023/09/20 04:09:20;;;;;;;6.60;2.28;;;18.60;99.90;;;;;;2078455;28;20056;-76
2023/09/20 04:10:21;;;;;;;5.03;1.85;;;18.50;99.90;;;;;;2068168;28;20037;-76
2023/09/20 04:11:21;;;;;;;2.63;1.92;;;18.50;99.90;;;;;;2067461;28;20119;-76
2023/09/20 04:12:23;;;;;;;6.63;2.10;;;18.50;99.90;;;;;;2076536;28;20030;-76
2023/09/20 04:13:24;;;;;;;5.05;2.50;;;18.50;99.90;;;;;;2075677;28;20055;-76
2023/09/20 04:14:25;;;;;;;6.60;2.35;;;18.50;99.90;;;;;;2077128;28;20021;-76
2023/09/20 04:15:26;;;;;;;5.82;2.30;;;18.50;99.90;;;;;;2077454;28;20032;-76
2023/09/20 04:16:27;;;;;;;3.53;1.95;;;18.50;99.90;;;;;;2069326;28;20030;-76
2023/09/20 04:17:27;;;;;;;6.38;2.50;;;18.50;99.90;;;;;;2068561;28;20081;-76
2023/09/20 04:18:28;;;;;;;7.78;2.10;;;18.50;99.90;;;;;;2077767;28;20029;-76
2023/09/20 04:19:29;;;;;;;5.53;2.33;;;18.50;99.90;;;;;;2075434;28;20064;-76
2023/09/20 04:20:31;;;;;;;6.57;2.10;;;18.50;99.90;;;;;;2076193;28;20058;-76
2023/09/20 04:21:32;;;;;;;4.15;2.00;;;18.50;99.90;;;;;;2075777;28;20079;-76
2023/09/20 04:22:32;;;;;;;3.58;1.75;;;18.50;99.90;;;;;;2068144;28;20048;-76
2023/09/20 04:23:33;;;;;;;2.83;1.98;;;18.50;99.90;;;;;;2067954;28;20029;-76
2023/09/20 04:24:34;;;;;;;3.30;1.88;;;18.50;99.90;;;;;;2077105;28;20053;-76
2023/09/20 04:25:34;;;;;;;7.63;2.25;;;18.50;99.90;;;;;;2066780;28;20031;-76
2023/09/20 04:26:35;;;;;;;6.43;2.08;;;18.50;99.90;;;;;;2067128;28;20026;-76
2023/09/20 04:27:36;;;;;;;7.35;2.50;;;18.50;99.90;;;;;;2077471;28;20030;-76
2023/09/20 04:28:36;;;;;;;3.53;2.00;;;18.50;99.90;;;;;;2076324;28;20092;-76
2023/09/20 04:29:37;;;;;;;4.60;2.17;;;18.50;99.90;;;;;;2076674;28;20045;-76
2023/09/20 04:30:38;;;;;;;6.55;1.98;;;18.50;99.90;;;;;;2069128;28;20731;-76
2023/09/20 04:31:41;;;;;;;5.32;2.22;;;18.50;99.90;;;;;;2068943;28;20027;-76
2023/09/20 04:32:42;;;;;;;3.78;1.90;;;18.50;99.90;;;;;;2074162;28;20167;-76
2023/09/20 04:33:42;;;;;;;4.32;2.30;;;18.50;99.90;;;;;;2076688;28;20041;-76
2023/09/20 04:34:43;;;;;;;5.80;1.95;;;18.50;99.90;;;;;;2076769;28;20404;-76
2023/09/20 04:35:43;;;;;;;6.80;2.05;;;18.50;99.90;;;;;;2076284;28;20049;-76
2023/09/20 04:36:45;;;;;;;5.13;1.92;;;18.50;99.90;;;;;;2076796;28;20026;-76
2023/09/20 04:37:46;;;;;;;5.55;2.08;;;18.50;99.90;;;;;;2074972;28;20059;-76
2023/09/20 04:38:46;;;;;;;5.10;1.98;;;18.50;99.90;;;;;;2068861;28;20413;-76
2023/09/20 04:39:47;;;;;;;3.67;1.80;;;18.50;99.90;;;;;;2068591;28;20030;-76
2023/09/20 04:40:48;;;;;;;3.92;1.95;;;18.50;99.90;;;;;;2069639;28;20064;-76
2023/09/20 04:41:48;;;;;;;4.25;2.00;;;18.50;99.90;;;;;;2068302;28;20129;-76
2023/09/20 04:42:49;;;;;;;3.88;2.08;;;18.50;99.90;;;;;;2075771;28;20036;-76
2023/09/20 04:43:49;;;;;;;5.55;2.17;;;18.50;99.90;;;;;;2077073;28;20033;-76
2023/09/20 04:44:51;;;;;;;5.20;2.42;;;18.50;99.90;;;;;;2069318;28;20067;-75
2023/09/20 04:45:52;;;;;;;6.07;2.47;;;18.50;99.90;;;;;;2068885;28;20030;-76
2023/09/20 04:46:52;;;;;;;4.25;1.95;;;18.50;99.90;;;;;;2071001;28;20023;-76
2023/09/20 04:47:53;;;;;;;5.45;2.22;;;18.50;99.90;;;;;;2072024;28;20433;-76
2023/09/20 04:48:53;;;;;;;5.57;1.95;;;18.50;99.90;;;;;;2075276;28;20140;-76
2023/09/20 04:49:54;;;;;;;3.85;2.08;;;18.50;99.90;;;;;;2070737;28;20024;-76
2023/09/20 04:50:55;;;;;;;6.20;2.25;;;18.50;99.90;;;;;;2062426;28;20461;-76
2023/09/20 04:52:00;;;;;;;6.50;2.30;;;18.50;99.90;;;;;;2069796;28;20072;-76
2023/09/20 04:53:00;;;;;;;4.60;1.75;;;18.50;99.90;;;;;;2079027;28;20017;-76
2023/09/20 04:54:01;;;;;;;4.00;2.13;;;18.50;99.90;;;;;;2069836;28;20541;-76
2023/09/20 04:55:02;;;;;;;6.50;2.00;;;18.50;99.90;;;;;;2067926;28;20022;-76
2023/09/20 04:56:02;;;;;;;3.97;2.13;;;18.50;99.90;;;;;;2077564;28;20022;-76
2023/09/20 04:57:04;;;;;;;4.03;2.17;;;18.50;99.90;;;;;;2075352;28;20018;-76
2023/09/20 04:58:06;;;;;;;6.30;2.53;;;18.50;99.90;;;;;;2077675;28;20025;-76
2023/09/20 04:59:08;;;;;;;7.85;2.08;;;18.50;99.90;;;;;;2076128;28;20028;-76
2023/09/20 05:00:09;;;;;;;6.00;2.10;;;18.50;99.90;;;;;;2075853;28;20036;-76
2023/09/20 05:01:14;;;;;;;6.60;2.13;;;18.50;99.90;;;;;;2038518;28;1102168;-76
2023/09/20 05:02:15;;;;;;;3.38;1.98;;;18.50;99.90;;;;;;2075109;28;20535;-76
2023/09/20 05:03:15;;;;;;;4.60;1.95;;;18.50;99.90;;;;;;2076916;28;20519;-76
2023/09/20 05:04:18;;;;;;;4.95;1.98;;;18.50;99.90;;;;;;2077968;28;20036;-76
2023/09/20 05:05:18;;;;;;;3.65;2.03;;;18.50;99.90;;;;;;2065755;28;20642;-76
2023/09/20 05:06:20;;;;;;;4.15;1.83;;;18.50;99.90;;;;;;2066777;28;20096;-76
2023/09/20 05:07:21;;;;;;;4.85;2.15;;;18.50;99.90;;;;;;2070687;28;20378;-76
2023/09/20 05:08:21;;;;;;;7.43;2.33;;;18.50;99.90;;;;;;2070013;28;20207;-76
2023/09/20 05:09:22;;;;;;;4.40;2.17;;;18.50;99.90;;;;;;2075384;28;20025;-76
2023/09/20 05:10:23;;;;;;;3.88;1.67;;;18.50;99.90;;;;;;2076903;28;20211;-76
2023/09/20 05:11:24;;;;;;;3.17;1.90;;;18.50;99.90;;;;;;2077136;28;20022;-76
2023/09/20 05:12:25;;;;;;;5.80;2.40;;;18.50;99.90;;;;;;2068152;28;20065;-76
2023/09/20 05:13:25;;;;;;;5.47;2.63;;;18.50;99.90;;;;;;2077925;28;20029;-76
2023/09/20 05:14:27;;;;;;;3.38;1.90;;;18.50;99.90;;;;;;2069117;28;20026;-76
2023/09/20 05:15:27;;;;;;;2.78;1.52;;;18.50;99.90;;;;;;2069654;28;20108;-76
2023/09/20 05:16:28;;;;;;;1.88;1.45;;;18.50;99.90;;;;;;2076775;28;20426;-76
2023/09/20 05:17:28;;;;;;;4.40;1.90;;;18.50;99.90;;;;;;2077585;28;20515;-76
2023/09/20 05:18:30;;;;;;;6.55;2.45;;;18.50;99.90;;;;;;2076580;28;20088;-76
2023/09/20 05:19:30;;;;;;;5.65;2.50;;;18.50;99.90;;;;;;2068765;28;20030;-76